Time;durP1;ratioP1;P1;durP2;ratioP2;P2;SDS_P1;SDS_P2;PMS_P1;PMS_P2;Temp;Humidity;BMP_temperature;BMP_pressure;BME280_temperature;BME280_humidity;BME280_pressure;Samples;Min_cycle;Max_cycle;Signal;HPM_P1;HPM_P2
2022/09/09 00:00:16;;;;;;;7.25;4.22;;;;;;;14.99;97.82;100050.47;1735653;82;20936;-72
2022/09/09 00:03:12;;;;;;;6.65;4.20;;;;;;;14.96;97.86;100048.38;1714561;82;21027;-75
2022/09/09 00:06:03;;;;;;;9.03;4.12;;;;;;;14.93;97.56;100049.84;1735382;82;20908;-73
2022/09/09 00:09:08;;;;;;;9.38;4.37;;;;;;;14.88;97.96;100043.11;1732079;82;21453;-74
2022/09/09 00:12:03;;;;;;;11.57;4.60;;;;;;;14.86;98.18;100049.55;1735175;82;20916;-71
2022/09/09 00:14:53;;;;;;;7.53;4.50;;;;;;;14.86;98.74;100051.54;1735563;82;20932;-71
2022/09/09 00:17:41;;;;;;;9.95;3.98;;;;;;;14.79;99.20;100043.72;1735277;82;21582;-73
2022/09/09 00:20:36;;;;;;;10.50;4.80;;;;;;;14.76;99.50;100046.58;1735647;81;20937;-74
2022/09/09 00:23:29;;;;;;;8.33;4.55;;;;;;;14.72;99.24;100045.64;1735399;81;21733;-75
2022/09/09 00:26:03;;;;;;;;;;;;;;;14.69;99.48;100047.67;1716977;82;21536;-73
2022/09/09 00:28:32;;;;;;;9.65;4.60;;;;;;;14.69;99.60;100054.60;1716935;82;20093;-71
2022/09/09 00:31:22;;;;;;;10.88;4.00;;;;;;;14.67;99.33;100061.08;1735376;82;21014;-72
2022/09/09 00:33:51;;;;;;;12.80;4.58;;;;;;;14.63;99.87;100062.33;1735739;82;20965;-70
2022/09/09 00:36:28;;;;;;;7.45;4.30;;;;;;;14.60;99.96;100069.33;1732193;82;20873;-71
2022/09/09 00:39:00;;;;;;;7.83;4.03;;;;;;;14.59;100.00;100079.38;1714756;82;20949;-74
2022/09/09 00:42:02;;;;;;;;;;;;;;;14.55;100.00;100073.68;1717599;82;20972;-71
2022/09/09 00:44:36;;;;;;;9.03;4.33;;;;;;;14.54;100.00;100078.17;1733551;82;20116;-75
2022/09/09 00:47:47;;;;;;;10.10;4.25;;;;;;;14.49;100.00;100075.02;1729863;82;20892;-72
2022/09/09 00:50:37;;;;;;;6.85;3.40;;;;;;;14.47;100.00;100085.06;1736188;82;21129;-72
2022/09/09 00:53:26;;;;;;;7.10;3.47;;;;;;;14.45;100.00;100085.17;1737536;82;21477;-73
2022/09/09 00:55:58;;;;;;;8.30;4.35;;;;;;;14.43;100.00;100089.63;1737736;82;20975;-72
2022/09/09 00:58:27;;;;;;;6.53;3.25;;;;;;;14.42;100.00;100088.58;1737756;82;21406;-73
2022/09/09 01:01:11;;;;;;;9.63;4.33;;;;;;;14.40;100.00;100092.28;1737807;82;21472;-74
2022/09/09 01:03:53;;;;;;;7.75;3.87;;;;;;;14.38;100.00;100093.18;1737538;82;21043;-75
2022/09/09 01:06:36;;;;;;;5.40;3.50;;;;;;;14.38;100.00;100093.97;1737685;82;21493;-74
2022/09/09 01:09:34;;;;;;;7.47;3.83;;;;;;;14.38;100.00;100098.13;1737608;81;20968;-75
2022/09/09 01:12:06;;;;;;;5.70;3.52;;;;;;;14.34;100.00;100100.78;1737484;82;21484;-73
2022/09/09 01:14:59;;;;;;;6.65;3.83;;;;;;;14.32;100.00;100105.84;1737581;81;21524;-72
2022/09/09 01:17:39;;;;;;;8.93;4.33;;;;;;;14.31;100.00;100104.78;1715640;82;21800;-75
2022/09/09 01:20:33;;;;;;;8.65;4.28;;;;;;;14.28;100.00;100099.31;1736435;82;20912;-70
2022/09/09 01:23:42;;;;;;;7.62;4.62;;;;;;;14.25;100.00;100095.83;1720328;82;20992;-74
2022/09/09 01:26:19;;;;;;;;;;;;;;;14.24;100.00;100099.75;1739563;82;20964;-74
2022/09/09 01:28:49;;;;;;;8.98;4.08;;;;;;;14.17;100.00;100100.27;1716952;82;20129;-72
2022/09/09 01:31:29;;;;;;;7.03;3.83;;;;;;;14.14;100.00;100091.79;1737924;82;21390;-71
2022/09/09 01:33:56;;;;;;;8.80;3.58;;;;;;;14.11;100.00;100095.45;1737221;82;21421;-74
2022/09/09 01:36:31;;;;;;;7.10;4.05;;;;;;;14.10;100.00;100091.07;1715519;82;21480;-72
2022/09/09 01:39:01;;;;;;;8.55;4.45;;;;;;;14.09;100.00;100088.04;1734238;82;21011;-73
2022/09/09 01:41:28;;;;;;;7.37;3.95;;;;;;;14.07;100.00;100098.66;1715634;82;20980;-74
2022/09/09 01:44:13;;;;;;;8.53;4.92;;;;;;;14.06;100.00;100090.66;1733375;82;20905;-72
2022/09/09 01:46:42;;;;;;;7.12;3.70;;;;;;;14.03;100.00;100098.24;1737343;82;21055;-71
2022/09/09 01:49:12;;;;;;;8.05;4.15;;;;;;;14.00;100.00;100099.73;1737222;81;21443;-72
2022/09/09 01:51:39;;;;;;;6.37;3.62;;;;;;;13.96;100.00;100089.05;1735874;82;20833;-74
2022/09/09 01:54:08;;;;;;;7.17;4.42;;;;;;;13.93;100.00;100090.54;1715158;82;20925;-71
2022/09/09 01:56:53;;;;;;;9.55;4.10;;;;;;;13.91;100.00;100090.05;1735500;82;21426;-73
2022/09/09 01:59:48;;;;;;;7.58;4.40;;;;;;;13.89;100.00;100085.41;1735154;82;21465;-73
2022/09/09 02:02:26;;;;;;;7.55;3.92;;;;;;;13.86;100.00;100084.12;1735586;82;20900;-73
2022/09/09 02:04:59;;;;;;;8.28;4.65;;;;;;;13.81;100.00;100080.13;1734284;82;21000;-73
2022/09/09 02:07:48;;;;;;;7.97;4.00;;;;;;;13.78;100.00;100083.56;1734327;82;20956;-72
2022/09/09 02:10:46;;;;;;;8.63;4.30;;;;;;;13.77;100.00;100084.69;1733666;82;21242;-72
2022/09/09 02:13:17;;;;;;;8.63;4.22;;;;;;;13.72;100.00;100084.30;1734924;82;20909;-73
2022/09/09 02:16:10;;;;;;;8.25;4.25;;;;;;;13.69;100.00;100078.59;1714796;82;20940;-73
2022/09/09 02:18:52;;;;;;;7.33;4.12;;;;;;;13.66;100.00;100074.54;1735448;82;20833;-71
2022/09/09 02:21:22;;;;;;;14.93;6.42;;;;;;;13.63;100.00;100077.37;1726147;81;20973;-73
2022/09/09 02:23:51;;;;;;;8.05;3.75;;;;;;;13.61;100.00;100083.02;1734956;82;21199;-73
2022/09/09 02:26:21;;;;;;;8.98;4.30;;;;;;;13.56;100.00;100082.59;1731395;81;20888;-72
2022/09/09 02:28:50;;;;;;;7.33;4.30;;;;;;;13.54;100.00;100083.51;1735129;82;20912;-72
2022/09/09 02:31:20;;;;;;;9.95;4.12;;;;;;;13.50;100.00;100086.08;1714763;82;20872;-74
2022/09/09 02:33:57;;;;;;;6.67;3.60;;;;;;;13.48;100.00;100078.66;1735294;82;20901;-74
2022/09/09 02:36:24;;;;;;;7.62;4.22;;;;;;;13.43;100.00;100073.85;1735324;82;21232;-74
2022/09/09 02:38:52;;;;;;;9.98;4.15;;;;;;;13.40;100.00;100075.33;1735509;82;20948;-74
2022/09/09 02:41:22;;;;;;;8.08;4.00;;;;;;;13.40;100.00;100075.33;1735596;82;21540;-73
2022/09/09 02:43:49;;;;;;;9.28;4.15;;;;;;;13.38;100.00;100079.81;1734946;82;20916;-74
2022/09/09 02:46:47;;;;;;;7.40;4.28;;;;;;;13.38;100.00;100068.74;1735450;82;20992;-74
2022/09/09 02:49:24;;;;;;;7.92;4.05;;;;;;;13.37;100.00;100065.71;1735618;82;21375;-74
2022/09/09 02:52:07;;;;;;;10.00;4.70;;;;;;;13.39;100.00;100064.83;1735027;82;20940;-72
2022/09/09 02:54:40;;;;;;;8.70;3.85;;;;;;;13.41;100.00;100066.47;1734646;82;20952;-75
2022/09/09 02:57:29;;;;;;;8.98;4.15;;;;;;;13.42;100.00;100068.08;1733525;82;21512;-73
2022/09/09 03:00:00;;;;;;;11.63;4.05;;;;;;;13.41;100.00;100067.27;1746078;82;20913;-72
2022/09/09 03:02:27;;;;;;;7.72;3.60;;;;;;;13.42;100.00;100068.08;1717285;82;20896;-73
2022/09/09 03:04:57;;;;;;;7.87;3.90;;;;;;;13.42;100.00;100070.30;1741187;82;20971;-73
2022/09/09 03:07:24;;;;;;;8.60;4.55;;;;;;;13.41;100.00;100068.64;1691843;82;20992;-71
2022/09/09 03:09:53;;;;;;;11.10;4.97;;;;;;;13.43;100.00;100073.85;1737478;82;20952;-72
2022/09/09 03:12:20;;;;;;;7.75;3.80;;;;;;;13.42;100.00;100077.21;1737468;82;20983;-71
2022/09/09 03:14:50;;;;;;;8.48;3.60;;;;;;;13.42;100.00;100068.08;1737543;81;20956;-73
2022/09/09 03:17:24;;;;;;;7.95;3.42;;;;;;;13.41;100.00;100079.72;1712218;82;20960;-72
2022/09/09 03:20:02;;;;;;;6.93;3.53;;;;;;;13.39;100.00;100086.97;1737702;82;20975;-73
2022/09/09 03:22:31;;;;;;;6.37;3.52;;;;;;;13.39;100.00;100088.94;1718234;82;20959;-71
2022/09/09 03:24:59;;;;;;;6.72;3.45;;;;;;;13.39;100.00;100091.70;1717758;82;20955;-71
2022/09/09 03:27:25;;;;;;;6.37;3.52;;;;;;;13.37;100.00;100095.36;1747974;82;21129;-72
2022/09/09 03:29:53;;;;;;;8.15;3.92;;;;;;;13.36;100.00;100100.08;1742401;82;20896;-71
2022/09/09 03:32:22;;;;;;;6.05;3.15;;;;;;;13.36;100.00;100100.63;1734333;82;21437;-71
2022/09/09 03:34:49;;;;;;;8.43;3.70;;;;;;;13.32;100.00;100098.29;1737505;82;21382;-71
2022/09/09 03:37:31;;;;;;;7.20;4.00;;;;;;;13.30;100.00;100100.00;1731122;82;20916;-71
2022/09/09 03:39:59;;;;;;;10.15;3.92;;;;;;;13.29;100.00;100104.48;1737495;82;21134;-74
2022/09/09 03:42:27;;;;;;;8.23;3.83;;;;;;;13.29;100.00;100102.50;1711784;82;20849;-72
2022/09/09 03:44:57;;;;;;;7.67;3.90;;;;;;;13.30;100.00;100104.71;1737439;82;20953;-73
2022/09/09 03:47:26;;;;;;;5.97;3.65;;;;;;;13.31;100.00;100101.61;1737444;82;21163;-72
2022/09/09 03:49:54;;;;;;;7.90;4.62;;;;;;;13.33;100.00;100096.58;1736828;82;21150;-71
2022/09/09 03:52:24;;;;;;;12.68;3.98;;;;;;;13.35;100.00;100092.92;1735388;82;21086;-72
2022/09/09 03:54:54;;;;;;;5.58;3.70;;;;;;;13.34;100.00;100097.41;1735571;82;20896;-72
2022/09/09 03:57:21;;;;;;;4.85;3.52;;;;;;;13.35;100.00;100098.45;1735198;82;21024;-72
2022/09/09 04:00:00;;;;;;;7.55;3.15;;;;;;;13.34;100.00;100107.88;1732142;82;20904;-71
2022/09/09 04:02:28;;;;;;;8.90;4.45;;;;;;;13.34;100.00;100106.50;1735524;82;21078;-73
2022/09/09 04:04:56;;;;;;;12.75;4.00;;;;;;;13.35;100.00;100106.76;1734647;81;22278;-73
2022/09/09 04:07:22;;;;;;;7.33;3.85;;;;;;;13.36;100.00;100105.61;1735538;82;20947;-72
2022/09/09 04:09:54;;;;;;;5.58;3.50;;;;;;;13.36;100.00;100108.37;1735514;82;21495;-72
2022/09/09 04:12:25;;;;;;;10.08;3.80;;;;;;;13.38;100.00;100109.43;1735381;82;20980;-72
2022/09/09 04:15:01;;;;;;;11.22;4.90;;;;;;;13.37;100.00;100107.81;1711053;82;21445;-71
2022/09/09 04:17:29;;;;;;;11.22;3.92;;;;;;;13.38;100.00;100118.56;1735532;82;21883;-73
2022/09/09 04:19:57;;;;;;;8.13;4.28;;;;;;;13.41;100.00;100114.91;1735373;82;20849;-73
2022/09/09 04:22:24;;;;;;;8.20;3.60;;;;;;;13.39;100.00;100114.64;1735656;82;20961;-72
2022/09/09 04:24:50;;;;;;;6.85;4.08;;;;;;;13.39;100.00;100122.95;1735394;82;20945;-72
2022/09/09 04:27:18;;;;;;;5.87;3.70;;;;;;;13.37;100.00;100123.83;1735973;82;20968;-74
2022/09/09 04:29:46;;;;;;;10.68;3.80;;;;;;;13.35;100.00;100124.75;1735466;82;21624;-74
2022/09/09 04:32:17;;;;;;;6.08;3.55;;;;;;;13.31;100.00;100120.98;1702818;82;20921;-74
2022/09/09 04:34:44;;;;;;;8.03;4.20;;;;;;;13.32;100.00;100124.58;1735560;82;20956;-74
2022/09/09 04:37:11;;;;;;;13.40;5.35;;;;;;;13.32;100.00;100127.34;1735593;82;21481;-73
2022/09/09 04:39:38;;;;;;;8.55;4.30;;;;;;;13.33;100.00;100140.03;1735703;82;20888;-72
2022/09/09 04:42:07;;;;;;;10.13;4.30;;;;;;;13.32;100.00;100143.39;1735416;82;21110;-72
2022/09/09 04:44:39;;;;;;;11.55;3.90;;;;;;;13.35;100.00;100141.91;1731911;82;20853;-74
2022/09/09 04:47:06;;;;;;;19.75;4.87;;;;;;;13.36;100.00;100140.20;1735429;82;20944;-73
2022/09/09 04:49:33;;;;;;;7.45;3.92;;;;;;;13.37;100.00;100141.03;1735510;82;20951;-73
2022/09/09 04:52:03;;;;;;;7.00;4.53;;;;;;;13.41;100.00;100141.99;1732289;82;21480;-73
2022/09/09 04:54:30;;;;;;;9.55;4.42;;;;;;;13.45;100.00;100142.98;1713416;82;21166;-76
2022/09/09 04:57:16;;;;;;;15.90;4.55;;;;;;;13.50;100.00;100141.44;1731598;82;20925;-73
2022/09/09 04:59:59;;;;;;;14.85;4.53;;;;;;;13.57;100.00;100140.98;1672857;84;20946;-74
2022/09/09 05:02:27;;;;;;;9.30;4.47;;;;;;;13.67;100.00;100127.38;1693355;84;20986;-72
2022/09/09 05:04:59;;;;;;;13.30;4.40;;;;;;;13.78;100.00;100133.98;1718484;82;21011;-70
2022/09/09 05:07:27;;;;;;;6.70;3.77;;;;;;;13.87;100.00;100132.00;1736383;82;21085;-72
2022/09/09 05:10:18;;;;;;;9.40;3.77;;;;;;;13.94;100.00;100132.88;1731657;82;20976;-74
2022/09/09 05:12:55;;;;;;;8.50;3.75;;;;;;;14.02;100.00;100136.23;1736328;82;20911;-72
2022/09/09 05:15:26;;;;;;;6.05;4.10;;;;;;;14.11;100.00;100130.09;1735529;82;20881;-70
2022/09/09 05:18:00;;;;;;;7.58;4.58;;;;;;;14.21;100.00;100122.59;1735573;82;20900;-71
2022/09/09 05:20:28;;;;;;;7.95;3.33;;;;;;;14.29;100.00;100121.74;1735473;82;21141;-71
2022/09/09 05:22:56;;;;;;;9.45;4.10;;;;;;;14.38;100.00;100118.13;1735494;82;20951;-73
2022/09/09 05:25:25;;;;;;;13.00;3.85;;;;;;;14.43;100.00;100125.67;1735567;82;20903;-71
2022/09/09 05:27:53;;;;;;;7.20;3.52;;;;;;;14.48;100.00;100115.79;1735254;82;21098;-70
2022/09/09 05:30:28;;;;;;;10.38;3.70;;;;;;;14.54;100.00;100115.05;1736140;82;20976;-71
2022/09/09 05:32:57;;;;;;;6.60;3.60;;;;;;;14.58;100.00;100108.27;1735455;82;21236;-72
2022/09/09 05:35:24;;;;;;;7.35;3.90;;;;;;;14.62;100.00;100108.41;1713424;82;20905;-74
2022/09/09 05:37:53;;;;;;;7.60;3.58;;;;;;;14.67;100.00;100111.00;1731776;82;21445;-73
2022/09/09 05:40:21;;;;;;;5.92;3.17;;;;;;;14.75;100.00;100118.46;1714643;82;20998;-73
2022/09/09 05:42:48;;;;;;;8.63;3.50;;;;;;;14.87;100.00;100134.98;1735738;82;20978;-72
2022/09/09 05:45:20;;;;;;;8.93;3.12;;;;;;;14.95;100.00;100136.90;1735573;82;21530;-73
2022/09/09 05:47:53;;;;;;;9.75;3.55;;;;;;;15.04;100.00;100129.91;1735626;82;20972;-72
2022/09/09 05:50:20;;;;;;;10.20;4.03;;;;;;;15.17;100.00;100129.41;1736175;82;21563;-71
2022/09/09 05:52:53;;;;;;;6.75;3.33;;;;;;;15.28;100.00;100135.40;1742445;82;20964;-74
2022/09/09 05:55:38;;;;;;;10.68;3.72;;;;;;;15.38;100.00;100135.00;1725842;82;21400;-72
2022/09/09 05:58:10;;;;;;;7.20;3.60;;;;;;;15.45;100.00;100134.46;1739184;82;20896;-71
2022/09/09 06:00:38;;;;;;;11.10;3.40;;;;;;;15.50;100.00;100148.14;1722377;82;21023;-73
2022/09/09 06:03:07;;;;;;;6.83;3.67;;;;;;;15.49;99.80;100153.44;1739295;82;20967;-74
2022/09/09 06:05:35;;;;;;;8.73;3.55;;;;;;;15.49;99.39;100152.05;1699115;82;20947;-74
2022/09/09 06:08:01;;;;;;;17.55;3.60;;;;;;;15.49;99.53;100152.05;1742988;82;21484;-73
2022/09/09 06:10:34;;;;;;;7.70;3.45;;;;;;;15.52;99.45;100142.25;1739618;82;20900;-72
2022/09/09 06:13:06;;;;;;;6.75;3.30;;;;;;;15.56;99.11;100142.61;1720936;82;21078;-73
2022/09/09 06:15:36;;;;;;;7.83;4.03;;;;;;;15.63;99.33;100148.19;1742767;82;21016;-73
2022/09/09 06:18:07;;;;;;;13.60;3.70;;;;;;;15.70;99.58;100153.45;1743058;82;21453;-71
2022/09/09 06:20:58;;;;;;;11.97;3.85;;;;;;;15.77;98.51;100147.34;1742057;82;20971;-73
2022/09/09 06:23:31;;;;;;;6.58;3.75;;;;;;;15.84;98.74;100148.75;1742852;82;21147;-71
2022/09/09 06:26:15;;;;;;;8.88;3.37;;;;;;;15.92;97.67;100142.30;1739577;82;21381;-74
2022/09/09 06:28:47;;;;;;;;;;;;;;;15.98;96.96;100150.69;1745644;82;20963;-74
2022/09/09 06:31:21;;;;;;;14.47;3.35;;;;;;;16.06;97.34;100153.98;1743269;82;20080;-75
2022/09/09 06:33:49;;;;;;;9.48;3.37;;;;;;;16.17;97.68;100161.89;1741850;82;20922;-73
2022/09/09 06:36:22;;;;;;;8.83;3.22;;;;;;;16.26;96.46;100155.65;1743146;82;21477;-69
2022/09/09 06:38:49;;;;;;;11.33;3.47;;;;;;;16.32;96.58;100160.42;1742872;82;20857;-70
2022/09/09 06:41:35;;;;;;;6.33;3.72;;;;;;;16.40;96.34;100165.07;1661920;84;21482;-74
2022/09/09 06:44:07;;;;;;;12.13;3.75;;;;;;;16.47;95.75;100156.73;1644942;85;20946;-72
2022/09/09 06:46:36;;;;;;;10.80;3.67;;;;;;;16.57;94.31;100163.24;1670764;85;20986;-74
2022/09/09 06:49:02;;;;;;;7.25;3.72;;;;;;;16.66;93.69;100161.75;1689896;85;21170;-73
2022/09/09 06:51:46;;;;;;;6.50;3.47;;;;;;;16.76;93.12;100163.27;1680621;85;21021;-72
2022/09/09 06:54:14;;;;;;;9.13;3.52;;;;;;;16.83;92.72;100157.12;1655486;85;21494;-72
2022/09/09 06:56:46;;;;;;;5.60;3.05;;;;;;;16.90;92.77;100158.75;1677165;85;20977;-72
2022/09/09 06:59:19;;;;;;;10.70;2.87;;;;;;;16.97;92.35;100154.81;1676656;85;20946;-73
2022/09/09 07:01:46;;;;;;;10.70;3.37;;;;;;;17.06;92.94;100152.48;1677450;85;21189;-72
2022/09/09 07:04:13;;;;;;;4.60;2.90;;;;;;;17.17;91.92;100157.02;1677070;85;20989;-71
2022/09/09 07:06:52;;;;;;;9.45;3.65;;;;;;;17.22;91.28;100154.81;1676821;85;20970;-71
2022/09/09 07:09:22;;;;;;;10.53;3.90;;;;;;;17.28;90.23;100158.97;1677159;85;21081;-72
2022/09/09 07:11:56;;;;;;;6.08;3.05;;;;;;;17.28;90.05;100161.75;1677064;85;21111;-70
2022/09/09 07:14:46;;;;;;;9.88;3.27;;;;;;;17.36;90.07;100161.98;1653646;85;20982;-72
2022/09/09 07:17:15;;;;;;;13.43;4.22;;;;;;;17.46;88.83;100154.53;1671971;85;20954;-72
2022/09/09 07:19:45;;;;;;;7.20;3.05;;;;;;;17.55;89.24;100162.77;1676990;85;21029;-73
2022/09/09 07:22:21;;;;;;;3.72;2.45;;;;;;;17.65;87.96;100161.45;1673967;85;20990;-75
2022/09/09 07:24:51;;;;;;;5.95;3.05;;;;;;;17.73;87.61;100165.25;1701788;84;21036;-72
2022/09/09 07:27:27;;;;;;;8.13;2.95;;;;;;;17.80;86.78;100164.64;1675278;85;20898;-74
2022/09/09 07:29:54;;;;;;;4.08;2.52;;;;;;;17.82;85.29;100164.53;1679430;85;20961;-73
2022/09/09 07:32:25;;;;;;;7.15;2.50;;;;;;;17.82;84.29;100161.75;1678939;85;21594;-72
2022/09/09 07:34:58;;;;;;;7.67;3.25;;;;;;;17.84;84.12;100164.17;1654371;85;21430;-71
2022/09/09 07:37:27;;;;;;;6.50;2.87;;;;;;;17.86;83.96;100154.88;1677334;85;20985;-74
2022/09/09 07:39:54;;;;;;;6.85;2.92;;;;;;;17.92;85.54;100159.03;1675910;85;21958;-72
2022/09/09 07:42:22;;;;;;;12.05;2.83;;;;;;;18.05;85.71;100159.77;1679210;85;20998;-69
2022/09/09 07:44:49;;;;;;;5.58;3.08;;;;;;;18.16;84.76;100160.69;1678891;85;20866;-70
2022/09/09 07:47:17;;;;;;;16.77;3.30;;;;;;;18.23;83.49;100160.31;1678368;83;21498;-73
2022/09/09 07:49:53;;;;;;;5.03;3.37;;;;;;;18.28;81.80;100156.45;1656463;85;21470;-69
2022/09/09 07:52:21;;;;;;;5.60;2.52;;;;;;;18.31;80.71;100153.51;1654013;85;21490;-72
2022/09/09 07:54:53;;;;;;;6.15;2.98;;;;;;;18.34;80.51;100152.22;1637039;87;21028;-70
2022/09/09 07:57:21;;;;;;;11.65;2.80;;;;;;;18.39;79.88;100156.71;1635969;87;21061;-73
2022/09/09 07:59:57;;;;;;;6.05;2.60;;;;;;;18.42;78.35;100152.41;1635754;86;20986;-71
2022/09/09 08:02:29;;;;;;;10.13;2.47;;;;;;;18.47;77.43;100154.36;1647189;86;21012;-73
2022/09/09 08:04:56;;;;;;;2.35;1.80;;;;;;;18.55;76.64;100160.92;1635687;85;21270;-74
2022/09/09 08:07:26;;;;;;;3.77;1.90;;;;;;;18.63;76.04;100168.88;1662873;85;21021;-73
2022/09/09 08:09:57;;;;;;;4.67;1.87;;;;;;;18.77;76.37;100167.04;1662549;86;21064;-72
2022/09/09 08:12:30;;;;;;;5.55;2.00;;;;;;;18.91;75.62;100164.38;1662755;86;20973;-70
2022/09/09 08:15:03;;;;;;;23.20;2.92;;;;;;;19.05;74.99;100160.55;1662331;86;20893;-72
2022/09/09 08:17:46;;;;;;;12.88;2.22;;;;;;;19.18;74.21;100166.84;1665827;85;21554;-70
2022/09/09 08:20:17;;;;;;;9.40;2.17;;;;;;;19.29;72.85;100166.28;1665080;85;21054;-75
2022/09/09 08:22:43;;;;;;;10.00;2.25;;;;;;;19.42;70.33;100167.78;1646998;86;20977;-74
2022/09/09 08:25:10;;;;;;;3.87;1.77;;;;;;;19.49;69.64;100167.13;1639688;87;20967;-72
2022/09/09 08:27:43;;;;;;;11.75;2.25;;;;;;;19.57;68.59;100164.70;1665639;86;20983;-72
2022/09/09 08:30:25;;;;;;;5.35;1.60;;;;;;;19.60;67.78;100156.19;1647329;86;21034;-74
2022/09/09 08:33:05;;;;;;;8.25;1.50;;;;;;;19.67;64.82;100159.72;1651799;86;21502;-72
2022/09/09 08:39:27;;;;;;;7.20;1.87;;;;;;;19.72;62.87;100164.99;1698716;84;20970;-71
2022/09/09 08:42:11;;;;;;;4.37;1.92;;;;;;;19.78;63.16;100160.75;1699893;84;21549;-72
2022/09/09 08:45:12;;;;;;;5.85;2.02;;;;;;;19.81;63.30;100143.23;1696650;84;20973;-74
2022/09/09 08:47:58;;;;;;;6.67;1.75;;;;;;;19.93;63.80;100153.45;1699613;84;20946;-72
2022/09/09 08:50:33;;;;;;;7.53;2.37;;;;;;;20.06;64.60;100146.34;1699926;84;20953;-73
2022/09/09 08:53:11;;;;;;;5.35;1.60;;;;;;;20.16;63.66;100146.32;1709601;82;20943;-74
2022/09/09 08:56:04;;;;;;;3.80;1.82;;;;;;;20.22;62.80;100142.03;1743214;82;20895;-71
2022/09/09 09:02:51;;;;;;;4.05;2.65;;;;;;;20.34;60.64;100130.44;1736056;82;20860;-71
2022/09/09 09:05:58;;;;;;;10.48;2.10;;;;;;;20.47;60.92;100122.06;1713452;82;20988;-70
2022/09/09 09:08:49;;;;;;;3.50;1.60;;;;;;;20.60;58.16;100126.90;1640270;85;20941;-74
2022/09/09 09:11:22;;;;;;;;;;;;;;;20.66;55.51;100121.77;1624268;85;21088;-73
2022/09/09 09:14:04;;;;;;;3.40;1.72;;;;;;;20.68;54.52;100123.03;1687276;85;21204;-71
2022/09/09 09:16:53;;;;;;;7.83;1.90;;;;;;;20.71;54.41;100124.87;1681017;85;21000;-72
2022/09/09 09:19:25;;;;;;;5.12;1.95;;;;;;;20.77;54.90;100122.78;1712901;83;20956;-72
2022/09/09 09:22:31;;;;;;;3.83;2.15;;;;;;;20.83;54.11;100126.66;1712544;83;21078;-73
2022/09/09 09:25:26;;;;;;;5.25;1.67;;;;;;;20.85;52.32;100127.88;1702816;83;20985;-73
2022/09/09 09:28:19;;;;;;;3.92;1.40;;;;;;;20.90;52.82;100123.36;1708124;83;21044;-71
2022/09/09 09:31:01;;;;;;;2.55;1.32;;;;;;;20.99;53.01;100129.31;1712569;83;21654;-71
2022/09/09 09:33:49;;;;;;;3.08;1.47;;;;;;;21.06;52.40;100130.83;1712606;83;20997;-72
2022/09/09 09:36:17;;;;;;;6.47;1.45;;;;;;;21.15;52.44;100110.34;1712876;83;21001;-75
2022/09/09 09:38:57;;;;;;;1.25;1.12;;;;;;;21.23;51.69;100123.05;1712610;83;21060;-73
2022/09/09 09:41:42;;;;;;;6.33;1.20;;;;;;;21.30;51.55;100118.14;1712860;83;21761;-71
2022/09/09 09:44:32;;;;;;;6.00;2.17;;;;;;;21.35;51.03;100118.63;1682977;83;20972;-72
2022/09/09 09:47:16;;;;;;;2.92;1.32;;;;;;;21.40;50.43;100113.28;1707282;83;20981;-73
2022/09/09 09:50:00;;;;;;;3.40;1.62;;;;;;;21.40;50.08;100111.29;1712201;83;21584;-74
2022/09/09 09:52:36;;;;;;;7.28;1.80;;;;;;;21.39;49.93;100113.86;1708182;83;20925;-75
2022/09/09 09:55:20;;;;;;;5.28;1.52;;;;;;;21.39;50.18;100114.48;1708878;83;20953;-73
2022/09/09 09:58:07;;;;;;;6.72;1.65;;;;;;;21.40;49.40;100101.48;1701555;83;21411;-72
2022/09/09 10:00:36;;;;;;;3.85;1.50;;;;;;;21.40;49.65;100107.09;1699860;84;20910;-71
2022/09/09 10:03:17;;;;;;;7.58;1.60;;;;;;;21.40;49.69;100118.30;1699737;84;20939;-70
2022/09/09 10:05:52;;;;;;;1.80;1.10;;;;;;;21.39;48.17;100115.88;1700063;84;20898;-76
2022/09/09 10:08:29;;;;;;;2.47;1.50;;;;;;;21.35;48.71;100120.61;1698983;84;21514;-69
2022/09/09 10:11:30;;;;;;;5.72;1.50;;;;;;;21.34;48.18;100121.81;1699611;84;20934;-71
2022/09/09 10:14:24;;;;;;;2.67;1.37;;;;;;;21.37;48.14;100116.84;1700234;83;20870;-72
2022/09/09 10:17:42;;;;;;;2.37;1.12;;;;;;;21.39;48.06;100113.08;1693794;84;20906;-72
2022/09/09 10:20:56;;;;;;;5.90;1.45;;;;;;;21.40;47.18;100115.50;1699866;84;20950;-73
2022/09/09 10:23:51;;;;;;;2.30;1.42;;;;;;;21.39;46.27;100113.08;1693089;84;20870;-74
2022/09/09 10:26:48;;;;;;;2.87;1.00;;;;;;;21.38;46.08;100114.25;1659796;86;21001;-73
2022/09/09 10:29:41;;;;;;;4.47;1.15;;;;;;;21.42;46.45;100110.91;1695341;84;21028;-71
2022/09/09 10:32:51;;;;;;;7.00;1.15;;;;;;;21.47;46.71;100113.97;1720303;83;21422;-70
2022/09/09 10:35:37;;;;;;;38.67;3.37;;;;;;;21.52;46.51;100118.65;1668316;85;21029;-72
2022/09/09 10:38:18;;;;;;;10.10;1.45;;;;;;;21.55;46.16;100114.84;1680884;85;21824;-74
2022/09/09 10:40:59;;;;;;;2.55;1.37;;;;;;;21.54;45.58;100108.45;1682217;85;20938;-70
2022/09/09 10:43:58;;;;;;;1.80;1.07;;;;;;;21.50;45.65;100108.41;1681909;85;20945;-75
2022/09/09 10:46:51;;;;;;;5.75;1.52;;;;;;;21.49;45.53;100110.19;1682106;85;21057;-71
2022/09/09 10:49:57;;;;;;;6.12;1.60;;;;;;;21.51;46.17;100107.83;1677380;85;21037;-72
2022/09/09 10:53:01;;;;;;;1.50;1.15;;;;;;;21.51;44.60;100109.22;1681708;85;21485;-72
2022/09/09 10:55:44;;;;;;;1.60;1.00;;;;;;;21.48;44.95;100113.58;1701835;83;20902;-73
2022/09/09 10:58:23;;;;;;;4.53;1.12;;;;;;;21.43;44.65;100113.91;1701631;84;21009;-73
2022/09/09 11:00:58;;;;;;;7.67;1.30;;;;;;;21.46;44.92;100117.34;1697549;84;21453;-73
2022/09/09 11:03:36;;;;;;;11.53;2.85;;;;;;;21.46;44.90;100118.75;1698131;83;21603;-72
2022/09/09 11:06:20;;;;;;;4.97;1.35;;;;;;;21.45;45.47;100119.14;1701784;84;21529;-71
2022/09/09 11:08:50;;;;;;;6.22;1.10;;;;;;;21.47;44.97;100122.37;1698547;84;20902;-74
2022/09/09 11:11:26;;;;;;;8.13;1.10;;;;;;;21.48;45.09;100125.37;1701794;84;21116;-74
2022/09/09 11:14:13;;;;;;;6.85;1.40;;;;;;;21.44;43.86;100116.95;1702260;84;21005;-72
2022/09/09 11:17:14;;;;;;;5.35;1.72;;;;;;;21.44;43.68;100114.73;1698531;84;21083;-73
2022/09/09 11:19:44;;;;;;;4.47;1.52;;;;;;;21.47;44.30;100117.58;1692389;84;21064;-72
2022/09/09 11:22:41;;;;;;;13.43;1.57;;;;;;;21.50;44.30;100128.02;1701647;84;21032;-74
2022/09/09 11:25:23;;;;;;;3.90;1.27;;;;;;;21.46;43.71;100116.56;1701979;84;20965;-70
2022/09/09 11:28:15;;;;;;;7.80;1.40;;;;;;;21.45;44.13;100117.73;1701686;84;21047;-72
2022/09/09 11:31:11;;;;;;;5.92;1.12;;;;;;;21.48;44.90;100121.98;1701946;84;20973;-73
2022/09/09 11:34:33;;;;;;;2.35;1.20;;;;;;;21.50;44.66;100121.60;1659999;84;21103;-72
2022/09/09 11:37:23;;;;;;;4.43;1.60;;;;;;;21.50;44.82;100117.41;1699671;84;20949;-72
2022/09/09 11:40:22;;;;;;;2.50;1.42;;;;;;;21.50;44.38;100114.59;1639593;84;21052;-71
2022/09/09 11:43:21;;;;;;;3.02;1.37;;;;;;;21.50;43.82;100109.81;1680463;84;21013;-74
2022/09/09 11:45:58;;;;;;;5.60;1.30;;;;;;;21.43;43.26;100101.92;1687301;84;21030;-73
2022/09/09 11:48:49;;;;;;;5.53;1.90;;;;;;;21.32;42.83;100095.58;1696451;84;20983;-73
2022/09/09 11:51:29;;;;;;;3.98;1.40;;;;;;;21.29;43.31;100096.31;1694561;84;21487;-74
2022/09/09 11:54:23;;;;;;;10.90;1.83;;;;;;;21.26;43.88;100093.69;1696475;84;20970;-72
2022/09/09 11:59:52;;;;;;;3.92;1.07;;;;;;;21.28;44.09;100088.52;1679856;85;21007;-71
2022/09/09 12:02:27;;;;;;;7.90;2.20;;;;;;;21.29;43.36;100085.11;1677606;85;21756;-71
2022/09/09 12:05:06;;;;;;;4.28;1.50;;;;;;;21.31;43.72;100085.53;1683524;85;21049;-70
2022/09/09 12:07:53;;;;;;;3.25;1.50;;;;;;;21.35;43.82;100086.41;1674420;85;21435;-72
2022/09/09 12:10:33;;;;;;;6.78;1.60;;;;;;;21.38;43.41;100080.03;1671966;85;21014;-71
2022/09/09 12:13:24;;;;;;;3.27;1.57;;;;;;;21.34;41.93;100077.77;1677465;85;20970;-70
2022/09/09 12:15:58;;;;;;;5.70;1.52;;;;;;;21.31;42.28;100076.34;1699952;84;21078;-71
2022/09/09 12:18:45;;;;;;;4.72;1.52;;;;;;;21.29;42.71;100073.90;1678794;85;20902;-70
2022/09/09 12:21:52;;;;;;;4.37;1.02;;;;;;;21.28;42.37;100080.11;1681981;85;21012;-74